createdAt,value
2023-03-07T00:00:24.904Z,2.60
2023-03-07T00:06:18.365Z,2.60
2023-03-07T00:12:12.429Z,2.60
2023-03-07T00:18:07.874Z,2.70
2023-03-07T00:24:01.518Z,2.60
2023-03-07T00:29:54.983Z,2.50
2023-03-07T00:35:58.358Z,2.70
2023-03-07T00:41:51.890Z,2.50
2023-03-07T00:47:45.458Z,2.50
2023-03-07T00:53:41.966Z,2.40
2023-03-07T00:59:35.576Z,2.40
2023-03-07T01:05:29.251Z,2.50
2023-03-07T01:11:24.345Z,2.40
2023-03-07T01:17:17.880Z,2.50
2023-03-07T01:23:11.786Z,2.50
2023-03-07T01:29:08.129Z,2.50
2023-03-07T01:35:02.380Z,2.50
2023-03-07T01:40:56.677Z,2.50
2023-03-07T01:46:54.437Z,2.60
2023-03-07T01:52:54.455Z,2.60
2023-03-07T01:58:48.380Z,2.40
2023-03-07T02:04:45.884Z,2.50
2023-03-07T02:10:40.468Z,2.50
2023-03-07T02:16:33.521Z,2.40
2023-03-07T02:22:29.309Z,2.40
2023-03-07T02:28:24.326Z,2.40
2023-03-07T02:34:23.323Z,2.50
2023-03-07T02:40:24.989Z,2.40
2023-03-07T02:46:20.771Z,2.30
2023-03-07T02:52:13.866Z,2.30
2023-03-07T02:58:07.505Z,2.40
2023-03-07T03:04:02.446Z,2.20
2023-03-07T03:09:56.043Z,2.30
2023-03-07T03:15:50.100Z,2.30
2023-03-07T03:21:45.909Z,2.30
2023-03-07T03:27:39.614Z,2.40
2023-03-07T03:33:33.352Z,2.30
2023-03-07T03:39:29.508Z,2.40
2023-03-07T03:45:25.789Z,2.40
2023-03-07T03:51:19.833Z,2.40
2023-03-07T03:57:18.198Z,2.50
2023-03-07T04:03:11.799Z,2.60
2023-03-07T04:09:05.860Z,2.70
2023-03-07T04:15:01.195Z,2.70
2023-03-07T04:20:54.949Z,2.70
2023-03-07T04:26:48.586Z,2.70
2023-03-07T04:32:43.980Z,2.80
2023-03-07T04:38:38.615Z,2.80
2023-03-07T04:44:32.232Z,2.90
2023-03-07T04:50:27.429Z,3.00
2023-03-07T04:56:20.968Z,3.00
2023-03-07T05:02:14.326Z,3.20
2023-03-07T05:08:10.501Z,3.10
2023-03-07T05:14:04.144Z,3.20
2023-03-07T05:19:57.314Z,3.20
2023-03-07T05:25:52.941Z,3.30
2023-03-07T05:31:46.082Z,3.30
2023-03-07T05:37:39.805Z,3.30
2023-03-07T05:43:35.042Z,3.30
2023-03-07T05:49:29.085Z,3.30
2023-03-07T05:55:22.975Z,3.40
2023-03-07T06:01:17.894Z,3.30
2023-03-07T06:07:11.314Z,3.30
2023-03-07T06:13:04.554Z,3.30
2023-03-07T06:18:59.438Z,3.30
2023-03-07T06:24:53.114Z,3.20
2023-03-07T06:30:46.172Z,3.30
2023-03-07T06:36:40.952Z,3.30
2023-03-07T06:42:35.439Z,3.40
2023-03-07T06:48:29.223Z,3.40
2023-03-07T06:54:24.691Z,3.50
2023-03-07T07:00:19.875Z,3.50
2023-03-07T07:06:13.667Z,3.50
2023-03-07T07:12:09.039Z,3.50
2023-03-07T07:18:02.535Z,3.50
2023-03-07T07:23:58.197Z,3.60
2023-03-07T07:29:53.243Z,3.60
2023-03-07T07:35:47.904Z,3.60
2023-03-07T07:41:41.653Z,3.60
2023-03-07T07:47:36.680Z,3.70
2023-03-07T07:53:29.872Z,3.70
2023-03-07T07:59:23.645Z,3.80
2023-03-07T08:05:19.950Z,3.80
2023-03-07T08:11:12.993Z,3.90
2023-03-07T08:17:06.291Z,3.90
2023-03-07T08:23:01.117Z,3.90
2023-03-07T08:28:54.175Z,4.00
2023-03-07T08:34:47.356Z,4.00
2023-03-07T08:40:41.832Z,3.90
2023-03-07T08:46:35.342Z,3.50
2023-03-07T08:52:28.834Z,3.60
2023-03-07T08:58:23.636Z,3.60
2023-03-07T09:04:16.855Z,3.80
2023-03-07T09:10:11.692Z,3.80
2023-03-07T09:16:08.042Z,3.80
2023-03-07T09:22:01.612Z,3.60
2023-03-07T09:27:54.775Z,3.60
2023-03-07T09:33:49.759Z,3.70
2023-03-07T09:39:43.266Z,3.70
2023-03-07T09:45:45.872Z,3.60
2023-03-07T09:51:46.845Z,3.80
2023-03-07T09:57:48.237Z,3.90
2023-03-07T10:03:48.388Z,4.00
2023-03-07T10:09:43.927Z,4.00
2023-03-07T10:15:49.100Z,4.10
2023-03-07T10:21:51.125Z,4.20
2023-03-07T10:27:48.413Z,4.10
2023-03-07T10:33:46.283Z,4.20
2023-03-07T10:39:45.011Z,4.20
2023-03-07T10:45:39.430Z,4.10
2023-03-07T10:51:53.594Z,3.80
2023-03-07T10:57:47.065Z,4.00
2023-03-07T11:03:53.268Z,5.00
2023-03-07T11:09:48.975Z,5.20
2023-03-07T11:15:42.541Z,4.70
2023-03-07T11:21:37.953Z,4.60
2023-03-07T11:27:40.852Z,4.30
2023-03-07T11:33:58.575Z,4.30
2023-03-07T11:40:11.559Z,4.50
2023-03-07T11:46:10.714Z,4.70
2023-03-07T11:52:30.478Z,4.40
2023-03-07T11:58:44.098Z,4.20
2023-03-07T12:05:14.607Z,4.20
2023-03-07T12:11:18.305Z,4.60
2023-03-07T12:17:25.706Z,4.80
2023-03-07T12:23:23.839Z,4.70
2023-03-07T12:29:25.892Z,4.70
2023-03-07T12:35:26.586Z,4.90
2023-03-07T12:41:36.344Z,5.90
2023-03-07T12:47:37.187Z,6.10
2023-03-07T12:53:38.909Z,6.10
2023-03-07T12:59:37.109Z,7.30
2023-03-07T13:05:32.335Z,6.70
2023-03-07T13:11:28.797Z,7.10
2023-03-07T13:17:55.762Z,8.40
2023-03-07T13:23:49.350Z,7.30
2023-03-07T13:30:19.601Z,6.30
2023-03-07T13:36:34.732Z,6.00
2023-03-07T13:42:49.645Z,7.00
2023-03-07T13:49:03.878Z,7.80
2023-03-07T13:54:58.444Z,8.30
2023-03-07T14:00:56.302Z,6.90
2023-03-07T14:06:54.735Z,7.60
2023-03-07T14:13:06.647Z,7.80
2023-03-07T14:19:10.225Z,7.20
2023-03-07T14:25:18.368Z,7.80
2023-03-07T14:31:25.621Z,8.30
2023-03-07T14:37:23.172Z,8.50
2023-03-07T14:43:36.465Z,8.50
2023-03-07T14:49:39.840Z,9.00
2023-03-07T14:55:37.723Z,8.00
2023-03-07T15:01:35.773Z,6.50
2023-03-07T15:07:29.333Z,6.50
2023-03-07T15:13:30.133Z,6.80
2023-03-07T15:19:31.692Z,7.50
2023-03-07T15:25:26.224Z,7.40
2023-03-07T15:31:24.310Z,7.50
2023-03-07T15:37:26.656Z,7.10
2023-03-07T15:43:28.645Z,7.40
2023-03-07T15:49:27.958Z,7.20
2023-03-07T15:55:26.763Z,6.60
2023-03-07T16:01:23.898Z,5.90
2023-03-07T16:07:18.256Z,5.00
2023-03-07T16:13:16.138Z,4.70
2023-03-07T16:19:10.620Z,4.70
2023-03-07T16:25:03.827Z,4.80
2023-03-07T16:30:59.544Z,4.90
2023-03-07T16:36:53.136Z,5.00
2023-03-07T16:42:48.969Z,4.90
2023-03-07T16:48:44.074Z,4.80
2023-03-07T16:54:37.582Z,4.70
2023-03-07T17:00:32.027Z,4.70
2023-03-07T17:06:38.366Z,4.50
2023-03-07T17:12:32.802Z,4.40
2023-03-07T17:18:26.632Z,4.40
2023-03-07T17:24:21.546Z,4.30
2023-03-07T17:30:20.896Z,4.30
2023-03-07T17:36:14.377Z,4.10
2023-03-07T17:42:09.585Z,3.10
2023-03-07T17:48:03.046Z,3.00
2023-03-07T17:53:56.539Z,3.10
2023-03-07T17:59:51.347Z,3.10
2023-03-07T18:05:44.398Z,3.20
2023-03-07T18:11:37.915Z,3.30
2023-03-07T18:17:46.642Z,3.30
2023-03-07T18:23:41.657Z,3.40
2023-03-07T18:29:35.094Z,3.50
2023-03-07T18:35:30.008Z,3.50
2023-03-07T18:41:25.640Z,3.50
2023-03-07T18:47:19.172Z,3.40
2023-03-07T18:53:14.079Z,3.50
2023-03-07T18:59:07.145Z,3.20
2023-03-07T19:05:00.670Z,2.90
2023-03-07T19:10:55.540Z,2.90
2023-03-07T19:16:49.122Z,2.90
2023-03-07T19:22:42.189Z,3.00
2023-03-07T19:28:37.555Z,2.90
2023-03-07T19:34:30.595Z,2.90
2023-03-07T19:40:26.798Z,2.90
2023-03-07T19:46:21.983Z,3.00
2023-03-07T19:52:16.796Z,2.90
2023-03-07T19:58:10.316Z,2.90
2023-03-07T20:04:06.821Z,2.80
2023-03-07T20:10:00.379Z,2.80
2023-03-07T20:15:54.334Z,2.70
2023-03-07T20:21:50.388Z,2.60
2023-03-07T20:27:43.886Z,2.60
2023-03-07T20:33:38.068Z,2.70
2023-03-07T20:39:32.934Z,2.70
2023-03-07T20:45:25.982Z,2.80
2023-03-07T20:51:21.340Z,2.80
2023-03-07T20:57:15.732Z,2.70
2023-03-07T21:03:13.897Z,2.60
2023-03-07T21:09:10.434Z,2.70
2023-03-07T21:15:05.261Z,2.70
2023-03-07T21:21:00.601Z,2.90
2023-03-07T21:26:54.178Z,2.80
2023-03-07T21:32:49.017Z,2.80
2023-03-07T21:38:43.230Z,2.80
2023-03-07T21:44:36.370Z,2.70
2023-03-07T21:50:31.201Z,2.70
2023-03-07T21:56:25.128Z,2.70
2023-03-07T22:02:18.699Z,2.70
2023-03-07T22:08:13.746Z,2.60
2023-03-07T22:14:07.198Z,2.60
2023-03-07T22:20:00.767Z,2.50
2023-03-07T22:25:55.629Z,2.50
2023-03-07T22:31:49.147Z,2.40
2023-03-07T22:37:42.766Z,2.30
2023-03-07T22:43:37.895Z,2.30
2023-03-07T22:49:31.779Z,2.30
2023-03-07T22:55:25.285Z,2.20
2023-03-07T23:01:22.199Z,2.40
2023-03-07T23:07:16.660Z,2.50
2023-03-07T23:13:10.115Z,2.40
2023-03-07T23:19:04.559Z,2.30
2023-03-07T23:24:58.112Z,2.20
2023-03-07T23:30:51.878Z,2.10
2023-03-07T23:36:47.102Z,2.20
2023-03-07T23:42:40.686Z,2.20
2023-03-07T23:48:34.143Z,2.00
2023-03-07T23:54:29.046Z,2.00
